createdAt,value
2023-04-18T00:00:18.991Z,997.4
2023-04-18T00:01:25.849Z,997.39
2023-04-18T00:02:26.931Z,997.39
2023-04-18T00:03:30.569Z,997.39
2023-04-18T00:04:32.161Z,997.33
2023-04-18T00:05:33.686Z,997.33
2023-04-18T00:06:35.400Z,997.34
2023-04-18T00:07:37.123Z,997.35
2023-04-18T00:08:38.863Z,997.37
2023-04-18T00:09:40.673Z,997.39
2023-04-18T00:10:42.346Z,997.34
2023-04-18T00:11:44.069Z,997.32
2023-04-18T00:12:45.804Z,997.32
2023-04-18T00:13:47.625Z,997.34
2023-04-18T00:14:49.268Z,997.32
2023-04-18T00:15:51.004Z,997.3
2023-04-18T00:16:52.885Z,997.3
2023-04-18T00:17:54.500Z,997.3
2023-04-18T00:18:56.201Z,997.29
2023-04-18T00:19:57.953Z,997.29
2023-04-18T00:20:59.672Z,997.29
2023-04-18T00:22:01.391Z,997.28
2023-04-18T00:23:03.162Z,997.28
2023-04-18T00:24:04.874Z,997.25
2023-04-18T00:25:06.609Z,997.26
2023-04-18T00:26:08.539Z,997.28
2023-04-18T00:27:10.069Z,997.26
2023-04-18T00:28:11.825Z,997.24
2023-04-18T00:29:13.565Z,997.21
2023-04-18T00:30:15.270Z,997.2
2023-04-18T00:31:17.076Z,997.18
2023-04-18T00:32:18.791Z,997.23
2023-04-18T00:33:20.536Z,997.21
2023-04-18T00:34:22.211Z,997.24
2023-04-18T00:35:23.938Z,997.25
2023-04-18T00:36:25.689Z,997.25
2023-04-18T00:37:27.406Z,997.26
2023-04-18T00:38:29.159Z,997.26
2023-04-18T00:39:30.881Z,997.16
2023-04-18T00:40:32.621Z,997.2
2023-04-18T00:41:34.373Z,997.23
2023-04-18T00:42:36.119Z,997.21
2023-04-18T00:43:37.832Z,997.25
2023-04-18T00:44:39.546Z,997.24
2023-04-18T00:45:41.332Z,997.2
2023-04-18T00:46:43.019Z,997.23
2023-04-18T00:47:44.774Z,997.23
2023-04-18T00:48:46.480Z,997.24
2023-04-18T00:49:48.227Z,997.17
2023-04-18T00:50:49.959Z,997.18
2023-04-18T00:51:51.682Z,997.14
2023-04-18T00:52:53.433Z,997.24
2023-04-18T00:53:55.164Z,997.2
2023-04-18T00:54:56.880Z,997.22
2023-04-18T00:55:58.633Z,997.2
2023-04-18T00:57:00.369Z,997.19
2023-04-18T00:58:02.085Z,997.17
2023-04-18T00:59:03.839Z,997.17
2023-04-18T01:00:05.565Z,997.18
2023-04-18T01:01:07.356Z,997.18
2023-04-18T01:02:09.083Z,997.19
2023-04-18T01:03:11.105Z,997.18
2023-04-18T01:04:13.070Z,997.09
2023-04-18T01:05:14.229Z,997.15
2023-04-18T01:06:15.960Z,997.12
2023-04-18T01:07:17.713Z,997.13
2023-04-18T01:08:19.420Z,997.14
2023-04-18T01:09:21.158Z,997.1
2023-04-18T01:10:22.904Z,997.12
2023-04-18T01:11:24.645Z,997.1
2023-04-18T01:12:26.433Z,997.09
2023-04-18T01:13:28.090Z,997.1
2023-04-18T01:14:29.833Z,997.09
2023-04-18T01:15:31.674Z,997.07
2023-04-18T01:16:33.318Z,997.03
2023-04-18T01:17:35.140Z,997.05
2023-04-18T01:18:36.773Z,997.04
2023-04-18T01:19:38.524Z,997.01
2023-04-18T01:20:40.257Z,997
2023-04-18T01:21:41.957Z,997.02
2023-04-18T01:22:43.713Z,996.98
2023-04-18T01:23:45.446Z,997
2023-04-18T01:24:47.337Z,996.97
2023-04-18T01:25:48.892Z,996.97
2023-04-18T01:26:50.635Z,996.95
2023-04-18T01:27:52.365Z,996.97
2023-04-18T01:28:54.105Z,996.95
2023-04-18T01:29:55.856Z,996.96
2023-04-18T01:30:57.662Z,996.96
2023-04-18T01:31:59.322Z,996.96
2023-04-18T01:33:01.180Z,996.95
2023-04-18T01:34:02.810Z,996.96
2023-04-18T01:35:04.530Z,996.94
2023-04-18T01:36:06.254Z,996.92
2023-04-18T01:37:07.995Z,996.95
2023-04-18T01:38:09.732Z,996.92
2023-04-18T01:39:11.505Z,996.92
2023-04-18T01:40:13.226Z,996.9
2023-04-18T01:41:14.934Z,996.85
2023-04-18T01:42:16.635Z,996.88
2023-04-18T01:43:18.379Z,996.84
2023-04-18T01:44:20.122Z,996.85
2023-04-18T01:45:21.851Z,996.81
2023-04-18T01:46:23.623Z,996.85
2023-04-18T01:47:25.305Z,996.83
2023-04-18T01:48:27.039Z,996.82
2023-04-18T01:49:28.794Z,996.79
2023-04-18T01:50:30.526Z,996.75
2023-04-18T01:51:32.258Z,996.81
2023-04-18T01:52:33.982Z,996.81
2023-04-18T01:53:35.713Z,996.75
2023-04-18T01:54:37.451Z,996.78
2023-04-18T01:55:39.202Z,996.82
2023-04-18T01:56:40.924Z,996.85
2023-04-18T01:57:42.642Z,996.78
2023-04-18T01:58:44.406Z,996.81
2023-04-18T01:59:46.116Z,996.74
2023-04-18T02:00:47.882Z,996.78
2023-04-18T02:01:49.606Z,996.77
2023-04-18T02:02:51.502Z,996.71
2023-04-18T02:03:53.476Z,996.69
2023-04-18T02:04:54.807Z,996.73
2023-04-18T02:05:56.519Z,996.73
2023-04-18T02:06:58.267Z,996.72
2023-04-18T02:07:59.972Z,996.69
2023-04-18T02:09:01.778Z,996.7
2023-04-18T02:10:03.469Z,996.7
2023-04-18T02:11:05.214Z,996.74
2023-04-18T02:12:06.917Z,996.69
2023-04-18T02:13:08.713Z,996.72
2023-04-18T02:14:10.372Z,996.75
2023-04-18T02:15:12.119Z,996.78
2023-04-18T02:16:13.935Z,996.76
2023-04-18T02:17:15.590Z,996.79
2023-04-18T02:18:17.307Z,996.71
2023-04-18T02:19:19.045Z,996.75
2023-04-18T02:20:20.787Z,996.77
2023-04-18T02:21:22.554Z,996.8
2023-04-18T02:22:24.287Z,996.77
2023-04-18T02:23:26.019Z,996.79
2023-04-18T02:24:27.721Z,996.76
2023-04-18T02:25:29.443Z,996.82
2023-04-18T02:26:31.210Z,996.79
2023-04-18T02:27:32.911Z,996.81
2023-04-18T02:28:34.676Z,996.82
2023-04-18T02:29:36.371Z,996.79
2023-04-18T02:30:38.158Z,996.83
2023-04-18T02:31:39.892Z,996.82
2023-04-18T02:32:41.690Z,996.79
2023-04-18T02:33:43.353Z,996.79
2023-04-18T02:34:45.295Z,996.82
2023-04-18T02:35:46.803Z,996.83
2023-04-18T02:36:48.533Z,996.81
2023-04-18T02:37:50.289Z,996.82
2023-04-18T02:38:52.028Z,996.81
2023-04-18T02:39:53.755Z,996.79
2023-04-18T02:40:55.489Z,996.85
2023-04-18T02:41:57.204Z,996.81
2023-04-18T02:42:58.949Z,996.83
2023-04-18T02:44:00.690Z,996.81
2023-04-18T02:45:02.444Z,996.79
2023-04-18T02:46:04.179Z,996.86
2023-04-18T02:47:05.886Z,996.83
2023-04-18T02:48:07.735Z,996.81
2023-04-18T02:49:09.331Z,996.83
2023-04-18T02:50:11.118Z,996.82
2023-04-18T02:51:12.782Z,996.86
2023-04-18T02:52:14.561Z,996.78
2023-04-18T02:53:16.259Z,996.93
2023-04-18T02:54:18.010Z,996.86
2023-04-18T02:55:19.731Z,996.87
2023-04-18T02:56:21.489Z,996.9
2023-04-18T02:57:23.213Z,996.87
2023-04-18T02:58:24.918Z,996.86
2023-04-18T02:59:26.681Z,996.87
2023-04-18T03:00:28.435Z,996.84
2023-04-18T03:01:30.212Z,996.88
2023-04-18T03:02:32.023Z,996.84
2023-04-18T03:03:33.686Z,996.84
2023-04-18T03:04:35.421Z,996.82
2023-04-18T03:05:37.058Z,996.79
2023-04-18T03:06:38.805Z,996.83
2023-04-18T03:07:40.555Z,996.87
2023-04-18T03:08:42.272Z,996.86
2023-04-18T03:09:44.001Z,996.84
2023-04-18T03:10:45.730Z,996.84
2023-04-18T03:11:47.473Z,996.85
2023-04-18T03:12:49.217Z,996.82
2023-04-18T03:13:50.967Z,996.82
2023-04-18T03:14:52.687Z,996.89
2023-04-18T03:15:54.476Z,996.86
2023-04-18T03:16:56.147Z,996.84
2023-04-18T03:17:57.932Z,996.9
2023-04-18T03:18:59.618Z,996.89
2023-04-18T03:20:01.347Z,996.87
2023-04-18T03:21:03.073Z,996.87
2023-04-18T03:22:04.800Z,996.86
2023-04-18T03:23:06.541Z,996.91
2023-04-18T03:24:09.261Z,996.88
2023-04-18T03:25:09.997Z,996.87
2023-04-18T03:26:11.745Z,996.93
2023-04-18T03:27:13.475Z,996.92
2023-04-18T03:28:15.226Z,996.89
2023-04-18T03:29:16.987Z,996.91
2023-04-18T03:30:18.676Z,996.9
2023-04-18T03:31:20.565Z,996.94
2023-04-18T03:32:22.212Z,996.87
2023-04-18T03:33:23.897Z,996.82
2023-04-18T03:34:25.628Z,996.9
2023-04-18T03:35:27.354Z,996.93
2023-04-18T03:36:29.096Z,996.9
2023-04-18T03:37:30.844Z,996.92
2023-04-18T03:38:32.565Z,996.86
2023-04-18T03:39:34.292Z,996.9
2023-04-18T03:40:36.059Z,996.82
2023-04-18T03:41:37.784Z,996.88
2023-04-18T03:42:39.493Z,996.89
2023-04-18T03:43:41.239Z,996.92
2023-04-18T03:44:42.953Z,996.88
2023-04-18T03:45:44.717Z,996.88
2023-04-18T03:46:46.416Z,996.87
2023-04-18T03:47:48.218Z,996.86
2023-04-18T03:48:49.933Z,996.89
2023-04-18T03:49:51.624Z,996.85
2023-04-18T03:50:53.368Z,996.89
2023-04-18T03:51:55.108Z,996.88
2023-04-18T03:52:56.824Z,996.91
2023-04-18T03:53:58.571Z,996.93
2023-04-18T03:55:00.336Z,996.91
2023-04-18T03:56:02.084Z,996.83
2023-04-18T03:57:03.765Z,996.9
2023-04-18T03:58:05.532Z,996.9
2023-04-18T03:59:07.242Z,996.88
2023-04-18T04:00:08.997Z,996.91
2023-04-18T04:01:10.727Z,996.93
2023-04-18T04:02:12.498Z,996.91
2023-04-18T04:03:14.297Z,996.88
2023-04-18T04:04:16.208Z,996.9
2023-04-18T04:05:17.651Z,996.87
2023-04-18T04:06:19.382Z,996.93
2023-04-18T04:07:21.116Z,996.9
2023-04-18T04:08:22.861Z,996.9
2023-04-18T04:09:24.721Z,996.91
2023-04-18T04:10:26.302Z,996.91
2023-04-18T04:11:28.059Z,996.91
2023-04-18T04:12:29.764Z,996.86
2023-04-18T04:13:31.497Z,996.88
2023-04-18T04:14:33.245Z,996.85
2023-04-18T04:15:34.982Z,996.89
2023-04-18T04:16:36.776Z,996.86
2023-04-18T04:17:38.474Z,996.91
2023-04-18T04:18:40.181Z,996.9
2023-04-18T04:19:41.916Z,996.92
2023-04-18T04:20:43.648Z,996.92
2023-04-18T04:21:45.419Z,996.96
2023-04-18T04:22:47.117Z,996.93
2023-04-18T04:23:48.846Z,996.92
2023-04-18T04:24:50.587Z,996.9
2023-04-18T04:25:52.355Z,996.92
2023-04-18T04:26:54.059Z,996.92
2023-04-18T04:27:55.902Z,996.92
2023-04-18T04:28:57.535Z,996.96
2023-04-18T04:29:59.263Z,996.99
2023-04-18T04:31:00.979Z,996.97
2023-04-18T04:32:02.791Z,996.94
2023-04-18T04:33:04.539Z,996.97
2023-04-18T04:34:06.202Z,996.95
2023-04-18T04:35:51.904Z,996.96
2023-04-18T04:36:53.652Z,996.99
2023-04-18T04:37:55.373Z,996.96
2023-04-18T04:38:57.124Z,996.99
2023-04-18T04:39:58.855Z,996.97
2023-04-18T04:41:00.616Z,996.99
2023-04-18T04:42:02.429Z,996.97
2023-04-18T04:43:04.034Z,996.99
2023-04-18T04:44:05.781Z,997.03
2023-04-18T04:45:07.522Z,997.02
2023-04-18T04:46:09.324Z,997.02
2023-04-18T04:47:10.984Z,997.1
2023-04-18T04:48:12.762Z,997.07
2023-04-18T04:49:14.485Z,997.06
2023-04-18T04:50:16.198Z,997.04
2023-04-18T04:51:17.958Z,997.07
2023-04-18T04:52:19.634Z,997.07
2023-04-18T04:53:21.399Z,997.04
2023-04-18T04:54:23.110Z,997.01
2023-04-18T04:55:25.021Z,997.08
2023-04-18T04:56:26.599Z,997.07
2023-04-18T04:57:28.307Z,997.11
2023-04-18T04:58:30.068Z,997.07
2023-04-18T04:59:31.805Z,997.13
2023-04-18T05:00:33.545Z,996.99
2023-04-18T05:01:35.265Z,997.09
2023-04-18T05:02:37.140Z,997.1
2023-04-18T05:03:38.840Z,997.05
2023-04-18T05:04:40.546Z,997.02
2023-04-18T05:05:42.226Z,997.02
2023-04-18T05:06:43.925Z,997.07
2023-04-18T05:07:45.679Z,997.04
2023-04-18T05:08:47.387Z,997.09
2023-04-18T05:09:49.125Z,997.09
2023-04-18T05:10:50.871Z,997.07
2023-04-18T05:11:52.588Z,997.08
2023-04-18T05:12:54.310Z,997
2023-04-18T05:13:56.057Z,997.08
2023-04-18T05:14:57.794Z,997.12
2023-04-18T05:15:59.552Z,997.09
2023-04-18T05:17:01.317Z,997.08
2023-04-18T05:18:03.099Z,997.06
2023-04-18T05:19:04.735Z,997.13
2023-04-18T05:20:06.471Z,997.05
2023-04-18T05:21:08.244Z,997.08
2023-04-18T05:22:10.051Z,997.04
2023-04-18T05:23:11.659Z,997.07
2023-04-18T05:24:13.582Z,997.08
2023-04-18T05:25:15.122Z,997.07
2023-04-18T05:26:16.897Z,997.06
2023-04-18T05:27:18.595Z,997.11
2023-04-18T05:28:20.327Z,997.1
2023-04-18T05:29:22.110Z,997.06
2023-04-18T05:30:23.825Z,997.11
2023-04-18T05:31:25.600Z,997.16
2023-04-18T05:32:27.306Z,997.13
2023-04-18T05:33:29.010Z,997.14
2023-04-18T05:34:30.745Z,997.12
2023-04-18T05:35:32.358Z,997.19
2023-04-18T05:36:34.124Z,997.2
2023-04-18T05:37:35.851Z,997.21
2023-04-18T05:38:37.552Z,997.31
2023-04-18T05:39:39.301Z,997.26
2023-04-18T05:40:41.337Z,997.25
2023-04-18T05:41:42.782Z,997.22
2023-04-18T05:42:44.551Z,997.24
2023-04-18T05:43:54.233Z,997.21
2023-04-18T05:44:47.955Z,997.24
2023-04-18T05:45:49.717Z,997.27
2023-04-18T05:46:51.464Z,997.24
2023-04-18T05:47:53.269Z,997.23
2023-04-18T05:48:54.938Z,997.24
2023-04-18T05:49:56.681Z,997.26
2023-04-18T05:50:58.387Z,997.29
2023-04-18T05:52:00.156Z,997.31
2023-04-18T05:53:01.906Z,997.29
2023-04-18T05:54:03.602Z,997.28
2023-04-18T05:55:05.346Z,997.3
2023-04-18T05:56:07.048Z,997.32
2023-04-18T05:57:08.805Z,997.26
2023-04-18T05:58:10.537Z,997.3
2023-04-18T05:59:12.235Z,997.26
2023-04-18T06:00:13.967Z,997.26
2023-04-18T06:01:15.697Z,997.28
2023-04-18T06:02:17.510Z,997.32
2023-04-18T06:03:19.316Z,997.25
2023-04-18T06:04:21.319Z,997.34
2023-04-18T06:05:23.066Z,997.33
2023-04-18T06:06:24.371Z,997.35
2023-04-18T06:07:26.126Z,997.33
2023-04-18T06:08:27.837Z,997.43
2023-04-18T06:09:29.592Z,997.38
2023-04-18T06:10:31.387Z,997.47
2023-04-18T06:11:33.048Z,997.44
2023-04-18T06:12:34.817Z,997.47
2023-04-18T06:13:36.540Z,997.44
2023-04-18T06:14:38.256Z,997.49
2023-04-18T06:15:40.004Z,997.48
2023-04-18T06:16:41.774Z,997.5
2023-04-18T06:17:43.518Z,997.56
2023-04-18T06:18:45.181Z,997.5
2023-04-18T06:19:46.909Z,997.54
2023-04-18T06:20:48.656Z,997.57
2023-04-18T06:21:50.429Z,997.56
2023-04-18T06:22:52.158Z,997.55
2023-04-18T06:23:53.880Z,997.6
2023-04-18T06:24:55.583Z,997.6
2023-04-18T06:25:57.335Z,997.71
2023-04-18T06:26:59.073Z,997.66
2023-04-18T06:28:00.811Z,997.67
2023-04-18T06:29:02.548Z,997.61
2023-04-18T06:30:04.304Z,997.65
2023-04-18T06:31:06.052Z,997.65
2023-04-18T06:32:07.736Z,997.65
2023-04-18T06:33:09.515Z,997.66
2023-04-18T06:34:11.297Z,997.62
2023-04-18T06:35:12.964Z,997.69
2023-04-18T06:36:14.651Z,997.67
2023-04-18T06:37:16.402Z,997.71
2023-04-18T06:38:18.184Z,997.7
2023-04-18T06:39:19.843Z,997.7
2023-04-18T06:40:21.590Z,997.73
2023-04-18T06:41:23.358Z,997.71
2023-04-18T06:42:25.047Z,997.69
2023-04-18T06:43:26.788Z,997.7
2023-04-18T06:44:28.556Z,997.68
2023-04-18T06:45:30.280Z,997.74
2023-04-18T06:46:32.012Z,997.73
2023-04-18T06:47:33.751Z,997.75
2023-04-18T06:48:35.462Z,997.74
2023-04-18T06:49:37.221Z,997.73
2023-04-18T06:50:38.964Z,997.75
2023-04-18T06:51:40.682Z,997.75
2023-04-18T06:52:42.417Z,997.72
2023-04-18T06:53:44.123Z,997.76
2023-04-18T06:54:45.866Z,997.73
2023-04-18T06:55:47.590Z,997.78
2023-04-18T06:56:49.339Z,997.78
2023-04-18T06:57:51.062Z,997.76
2023-04-18T06:58:52.844Z,997.78
2023-04-18T06:59:54.550Z,997.69
2023-04-18T07:00:56.284Z,997.75
2023-04-18T07:01:58.059Z,997.78
2023-04-18T07:02:59.840Z,997.77
2023-04-18T07:04:01.583Z,997.81
2023-04-18T07:05:03.221Z,997.77
2023-04-18T07:06:04.938Z,997.81
2023-04-18T07:07:06.687Z,997.82
2023-04-18T07:08:08.436Z,997.81
2023-04-18T07:09:10.140Z,997.84
2023-04-18T07:10:11.905Z,997.84
2023-04-18T07:11:13.615Z,997.84
2023-04-18T07:12:15.384Z,997.9
2023-04-18T07:13:17.100Z,997.94
2023-04-18T07:14:18.809Z,997.91
2023-04-18T07:15:20.522Z,997.93
2023-04-18T07:16:22.314Z,997.89
2023-04-18T07:17:24.071Z,997.92
2023-04-18T07:18:36.605Z,997.91
2023-04-18T07:19:27.499Z,997.96
2023-04-18T07:20:29.268Z,997.96
2023-04-18T07:21:30.960Z,997.91
2023-04-18T07:22:32.690Z,997.88
2023-04-18T07:23:34.507Z,997.92
2023-04-18T07:24:36.147Z,997.88
2023-04-18T07:25:37.876Z,997.96
2023-04-18T07:26:39.601Z,997.88
2023-04-18T07:27:41.382Z,997.89
2023-04-18T07:28:43.077Z,997.9
2023-04-18T07:29:44.837Z,997.8
2023-04-18T07:30:46.583Z,997.82
2023-04-18T07:31:48.301Z,997.89
2023-04-18T07:32:50.076Z,997.89
2023-04-18T07:33:51.762Z,997.91
2023-04-18T07:34:53.524Z,997.94
2023-04-18T07:35:55.205Z,997.88
2023-04-18T07:36:56.954Z,997.87
2023-04-18T07:37:58.678Z,997.95
2023-04-18T07:39:00.406Z,997.88
2023-04-18T07:40:02.184Z,997.89
2023-04-18T07:41:03.872Z,997.91
2023-04-18T07:42:05.619Z,997.9
2023-04-18T07:43:07.393Z,997.95
2023-04-18T07:44:09.086Z,997.92
2023-04-18T07:45:10.820Z,997.88
2023-04-18T07:46:12.619Z,997.91
2023-04-18T07:47:14.310Z,997.96
2023-04-18T07:48:16.084Z,997.92
2023-04-18T07:49:17.782Z,997.99
2023-04-18T07:50:19.496Z,998
2023-04-18T07:51:21.215Z,998.03
2023-04-18T07:52:22.947Z,997.94
2023-04-18T07:53:24.690Z,998.01
2023-04-18T07:54:26.524Z,998.04
2023-04-18T07:55:28.182Z,998.04
2023-04-18T07:56:29.927Z,998.02
2023-04-18T07:57:31.628Z,997.98
2023-04-18T07:58:33.374Z,998.01
2023-04-18T07:59:35.102Z,998.04
2023-04-18T08:00:36.847Z,998.08
2023-04-18T08:01:38.591Z,998.04
2023-04-18T08:02:40.425Z,998.1
2023-04-18T08:03:42.222Z,998.11
2023-04-18T08:04:43.962Z,998.11
2023-04-18T08:05:45.504Z,998.04
2023-04-18T08:06:47.243Z,998.13
2023-04-18T08:07:48.996Z,998.07
2023-04-18T08:08:50.720Z,998.09
2023-04-18T08:09:52.455Z,998.07
2023-04-18T08:10:54.214Z,998.02
2023-04-18T08:11:56.093Z,998.05
2023-04-18T08:12:57.644Z,998.11
2023-04-18T08:13:59.386Z,998.08
2023-04-18T08:15:01.145Z,998
2023-04-18T08:16:02.894Z,998.04
2023-04-18T08:17:04.590Z,998.03
2023-04-18T08:18:06.370Z,998.05
2023-04-18T08:19:08.058Z,997.99
2023-04-18T08:20:09.817Z,998.06
2023-04-18T08:21:11.520Z,998.1
2023-04-18T08:22:13.296Z,998.08
2023-04-18T08:23:14.985Z,998.07
2023-04-18T08:24:16.740Z,998.05
2023-04-18T08:25:18.455Z,998.1
2023-04-18T08:26:20.203Z,998.15
2023-04-18T08:27:21.899Z,998.07
2023-04-18T08:28:23.672Z,998.14
2023-04-18T08:29:25.392Z,998.09
2023-04-18T08:30:27.107Z,998.08
2023-04-18T08:31:28.924Z,998.1
2023-04-18T08:32:30.667Z,998.02
2023-04-18T08:33:32.347Z,998.05
2023-04-18T08:34:34.078Z,998.07
2023-04-18T08:35:35.797Z,998.06
2023-04-18T08:36:37.525Z,998.14
2023-04-18T08:37:39.285Z,998.11
2023-04-18T08:38:40.986Z,998.16
2023-04-18T08:39:42.747Z,998.15
2023-04-18T08:40:44.462Z,998.17
2023-04-18T08:41:46.199Z,998.16
2023-04-18T08:42:47.941Z,998.21
2023-04-18T08:43:49.692Z,998.16
2023-04-18T08:44:51.399Z,998.19
2023-04-18T08:45:53.208Z,998.21
2023-04-18T08:46:54.872Z,998.19
2023-04-18T08:47:56.693Z,998.14
2023-04-18T08:48:58.325Z,998.19
2023-04-18T08:50:00.118Z,998.19
2023-04-18T08:51:01.821Z,998.22
2023-04-18T08:52:03.569Z,998.17
2023-04-18T08:53:05.287Z,998.12
2023-04-18T08:54:07.004Z,998.16
2023-04-18T08:55:08.739Z,998.17
2023-04-18T08:56:10.453Z,998.18
2023-04-18T08:57:12.217Z,998.16
2023-04-18T08:58:13.953Z,998.14
2023-04-18T08:59:16.154Z,998.24
2023-04-18T09:00:17.392Z,998.23
2023-04-18T09:01:19.188Z,998.27
2023-04-18T09:02:20.978Z,998.25
2023-04-18T09:03:22.631Z,998.31
2023-04-18T09:04:24.373Z,998.31
2023-04-18T09:05:26.104Z,998.28
2023-04-18T09:06:27.996Z,998.24
2023-04-18T09:07:29.544Z,998.26
2023-04-18T09:08:31.306Z,998.29
2023-04-18T09:09:33.001Z,998.25
2023-04-18T09:10:34.739Z,998.22
2023-04-18T09:11:36.475Z,998.24
2023-04-18T09:12:38.418Z,998.23
2023-04-18T09:13:39.963Z,998.21
2023-04-18T09:14:41.715Z,998.23
2023-04-18T09:15:43.390Z,998.23
2023-04-18T09:16:45.242Z,998.16
2023-04-18T09:17:46.931Z,998.1
2023-04-18T09:18:48.629Z,998.15
2023-04-18T09:19:50.358Z,998.15
2023-04-18T09:20:52.091Z,998.18
2023-04-18T09:21:53.805Z,998.13
2023-04-18T09:22:55.686Z,998.17
2023-04-18T09:23:57.292Z,998.14
2023-04-18T09:24:59.009Z,998.08
2023-04-18T09:26:00.740Z,998.16
2023-04-18T09:27:02.479Z,998.17
2023-04-18T09:28:04.217Z,998.14
2023-04-18T09:29:05.947Z,998.16
2023-04-18T09:30:07.660Z,998.11
2023-04-18T09:31:09.552Z,998.15
2023-04-18T09:32:11.178Z,998.15
2023-04-18T09:33:12.872Z,998.15
2023-04-18T09:34:14.973Z,998.18
2023-04-18T09:35:16.356Z,998.23
2023-04-18T09:36:18.094Z,998.17
2023-04-18T09:37:19.839Z,998.18
2023-04-18T09:38:21.559Z,998.15
2023-04-18T09:39:23.307Z,998.11
2023-04-18T09:40:25.014Z,998.17
2023-04-18T09:41:26.777Z,998.17
2023-04-18T09:42:28.973Z,998.15
2023-04-18T09:43:30.212Z,998.13
2023-04-18T09:44:31.955Z,998.13
2023-04-18T09:45:33.715Z,998.13
2023-04-18T09:46:35.463Z,998.14
2023-04-18T09:47:37.236Z,998.09
2023-04-18T09:48:38.901Z,998.08
2023-04-18T09:49:40.638Z,998.08
2023-04-18T09:50:42.347Z,998.09
2023-04-18T09:51:44.104Z,998.05
2023-04-18T09:52:45.867Z,998.09
2023-04-18T09:53:47.818Z,998.06
2023-04-18T09:54:49.329Z,998.05
2023-04-18T09:55:51.051Z,998.05
2023-04-18T09:56:52.781Z,998.04
2023-04-18T09:57:54.499Z,997.99
2023-04-18T09:58:56.226Z,998
2023-04-18T09:59:57.987Z,998.02
2023-04-18T10:00:59.727Z,997.94
2023-04-18T10:02:01.743Z,998.01
2023-04-18T10:03:03.228Z,998
2023-04-18T10:04:04.981Z,997.96
2023-04-18T10:05:06.743Z,997.97
2023-04-18T10:06:08.348Z,998
2023-04-18T10:07:10.158Z,998.02
2023-04-18T10:08:11.843Z,997.97
2023-04-18T10:09:13.783Z,997.97
2023-04-18T10:10:15.344Z,998.04
2023-04-18T10:11:18.570Z,997.99
2023-04-18T10:12:18.782Z,998
2023-04-18T10:13:20.527Z,998.04
2023-04-18T10:14:22.253Z,998.05
2023-04-18T10:15:23.985Z,998.01
2023-04-18T10:16:25.762Z,997.99
2023-04-18T10:17:29.429Z,997.98
2023-04-18T10:18:29.219Z,998.01
2023-04-18T10:19:30.918Z,998.04
2023-04-18T10:20:32.619Z,997.99
2023-04-18T10:21:34.384Z,997.95
2023-04-18T10:22:36.127Z,997.91
2023-04-18T10:23:37.891Z,997.95
2023-04-18T10:24:39.573Z,997.96
2023-04-18T10:25:41.329Z,997.93
2023-04-18T10:26:43.038Z,998
2023-04-18T10:27:44.784Z,997.91
2023-04-18T10:28:46.485Z,997.92
2023-04-18T10:29:49.089Z,997.91
2023-04-18T10:30:50.002Z,997.92
2023-04-18T10:31:51.889Z,997.9
2023-04-18T10:32:53.502Z,997.89
2023-04-18T10:34:56.928Z,997.91
2023-04-18T10:35:58.640Z,997.94
2023-04-18T10:37:00.412Z,997.96
2023-04-18T10:38:02.130Z,997.86
2023-04-18T10:39:03.962Z,997.92
2023-04-18T10:40:05.599Z,997.87
2023-04-18T10:41:17.106Z,997.94
2023-04-18T10:42:09.067Z,997.9
2023-04-18T10:43:10.815Z,997.89
2023-04-18T10:44:12.761Z,997.96
2023-04-18T10:45:14.291Z,997.92
2023-04-18T10:46:28.295Z,997.94
2023-04-18T10:47:17.828Z,997.96
2023-04-18T10:48:20.317Z,997.94
2023-04-18T10:49:22.360Z,997.91
2023-04-18T10:50:22.939Z,997.87
2023-04-18T10:51:24.663Z,997.85
2023-04-18T10:52:26.416Z,997.86
2023-04-18T10:53:28.138Z,997.83
2023-04-18T10:54:29.858Z,997.8
2023-04-18T10:55:31.621Z,997.77
2023-04-18T10:56:33.344Z,997.75
2023-04-18T10:57:35.109Z,997.73
2023-04-18T10:58:36.839Z,997.67
2023-04-18T10:59:38.612Z,997.65
2023-04-18T11:00:40.299Z,997.62
2023-04-18T11:01:42.020Z,997.66
2023-04-18T11:02:43.900Z,997.59
2023-04-18T11:03:45.555Z,997.62
2023-04-18T11:04:47.227Z,997.58
2023-04-18T11:05:48.944Z,997.56
2023-04-18T11:06:50.691Z,997.54
2023-04-18T11:07:52.420Z,997.53
2023-04-18T11:08:54.137Z,997.53
2023-04-18T11:09:55.891Z,997.52
2023-04-18T11:10:57.651Z,997.48
2023-04-18T11:11:59.634Z,997.43
2023-04-18T11:13:01.069Z,997.45
2023-04-18T11:14:02.834Z,997.43
2023-04-18T11:15:04.521Z,997.37
2023-04-18T11:16:06.319Z,997.41
2023-04-18T11:17:07.989Z,997.4
2023-04-18T11:18:09.853Z,997.44
2023-04-18T11:19:11.489Z,997.36
2023-04-18T11:20:20.317Z,997.35
2023-04-18T11:21:14.943Z,997.33
2023-04-18T11:22:16.702Z,997.34
2023-04-18T11:23:18.433Z,997.32
2023-04-18T11:24:20.190Z,997.31
2023-04-18T11:25:21.898Z,997.29
2023-04-18T11:26:23.610Z,997.28
2023-04-18T11:27:25.370Z,997.25
2023-04-18T11:28:27.115Z,997.21
2023-04-18T11:29:28.821Z,997.19
2023-04-18T11:30:30.568Z,997.16
2023-04-18T11:31:32.335Z,997.24
2023-04-18T11:32:34.153Z,997.15
2023-04-18T11:33:36.245Z,997.16
2023-04-18T11:34:37.516Z,997.17
2023-04-18T11:35:39.252Z,997.23
2023-04-18T11:36:40.979Z,997.11
2023-04-18T11:37:42.717Z,997.17
2023-04-18T11:38:44.447Z,997.16
2023-04-18T11:39:46.202Z,997.1
2023-04-18T11:40:47.957Z,997.15
2023-04-18T11:41:49.633Z,997.17
2023-04-18T11:42:51.356Z,997.19
2023-04-18T11:43:53.129Z,997.18
2023-04-18T11:44:54.844Z,997.18
2023-04-18T11:45:56.642Z,997.23
2023-04-18T11:46:58.303Z,997.21
2023-04-18T11:48:00.078Z,997.18
2023-04-18T11:49:01.762Z,997.25
2023-04-18T11:50:03.525Z,997.2
2023-04-18T11:51:05.249Z,997.11
2023-04-18T11:52:06.974Z,997.18
2023-04-18T11:53:08.701Z,997.16
2023-04-18T11:54:10.435Z,997.17
2023-04-18T11:55:12.175Z,997.07
2023-04-18T11:56:13.951Z,997.11
2023-04-18T11:57:15.628Z,997.17
2023-04-18T11:58:17.395Z,997.21
2023-04-18T11:59:19.100Z,997.17
2023-04-18T12:00:20.873Z,997.14
2023-04-18T12:01:22.635Z,997.2
2023-04-18T12:02:24.394Z,997.18
2023-04-18T12:03:26.275Z,997.12
2023-04-18T12:04:28.087Z,997.2
2023-04-18T12:05:29.908Z,997.16
2023-04-18T12:06:31.294Z,997.16
2023-04-18T12:07:33.014Z,997.17
2023-04-18T12:08:34.715Z,997.12
2023-04-18T12:09:36.444Z,997.14
2023-04-18T12:10:38.218Z,997.1
2023-04-18T12:11:39.909Z,997.13
2023-04-18T12:12:41.670Z,997.17
2023-04-18T12:13:43.385Z,997.12
2023-04-18T12:14:45.118Z,997.15
2023-04-18T12:15:46.962Z,997.16
2023-04-18T12:16:48.576Z,997.21
2023-04-18T12:17:50.399Z,997.13
2023-04-18T12:18:52.065Z,997.21
2023-04-18T12:19:53.773Z,997.17
2023-04-18T12:20:55.523Z,997.2
2023-04-18T12:21:57.269Z,997.17
2023-04-18T12:22:58.989Z,997.13
2023-04-18T12:24:00.772Z,997.17
2023-04-18T12:25:02.478Z,997.09
2023-04-18T12:26:04.511Z,997.14
2023-04-18T12:27:05.960Z,997.08
2023-04-18T12:28:07.664Z,997.13
2023-04-18T12:29:09.383Z,997.13
2023-04-18T12:30:11.141Z,997.1
2023-04-18T12:31:13.016Z,997.1
2023-04-18T12:32:14.623Z,997.14
2023-04-18T12:33:16.333Z,997.12
2023-04-18T12:34:18.076Z,997.11
2023-04-18T12:35:19.795Z,997.13
2023-04-18T12:36:21.558Z,997.14
2023-04-18T12:37:23.257Z,997.14
2023-04-18T12:38:25.104Z,997.15
2023-04-18T12:39:26.721Z,997.16
2023-04-18T12:40:28.471Z,997.15
2023-04-18T12:41:30.206Z,997.16
2023-04-18T12:42:31.929Z,997.15
2023-04-18T12:43:33.688Z,997.14
2023-04-18T12:44:35.423Z,997.16
2023-04-18T12:45:37.128Z,997.18
2023-04-18T12:46:38.936Z,997.15
2023-04-18T12:47:40.658Z,997.15
2023-04-18T12:48:42.336Z,997.13
2023-04-18T12:49:44.078Z,997.13
2023-04-18T12:50:45.816Z,997.15
2023-04-18T12:51:47.569Z,997.22
2023-04-18T12:52:49.275Z,997.15
2023-04-18T12:53:51.150Z,997.16
2023-04-18T12:54:52.755Z,997.13